Bookmark and Share
Track history (hours):
 

Bermuda Spirit

Last reported at 2014-Apr-23 14:33 UTC. Time now 2014-Apr-23 15:17 UTC.
Position N 35°33' E 026°15'.

Length 274 m; draft 9.1 m.

Type: Tanker. MMSI: 311020900.

NotesDate/timePositionNaut miles runAvg speedWind from/ knotsBaromVisibWave heightAir tempDewpointWater temp
2014-Apr-23 14:33N 35°33' E 026°15'8 8.4
2014-Apr-23 13:33N 35°38' E 026°06'9 8.4
2014-Apr-23 12:32N 35°42' E 025°57'1111.4
2014-Apr-23 11:33N 35°48' E 025°45'1413.6
2014-Apr-23 10:33N 35°56' E 025°31'1111.2
2014-Apr-23 09:33N 36°01' E 025°19'8 8.5
2014-Apr-23 08:33N 36°06' E 025°10'9 8.6
2014-Apr-23 07:33N 36°11' E 025°01'9 8.7
2014-Apr-23 06:33N 36°15' E 024°52'9 8.8
2014-Apr-23 05:33N 36°20' E 024°43'9 9.1
2014-Apr-23 04:33N 36°25' E 024°34'9 9.5
2014-Apr-23 03:33N 36°30' E 024°24'9 8.9
2014-Apr-23 02:29N 36°36' E 024°14'9 8.7
2014-Apr-23 01:30N 36°43' E 024°08'9 9.3
2014-Apr-23 00:33N 36°50' E 024°03'10 9.5
2014-Apr-22 23:33N 36°59' E 023°58'9 9.2
2014-Apr-22 22:33N 37°08' E 023°54'19 9.3
2014-Apr-22 20:33N 37°25' E 023°47'9 9.2
2014-Apr-22 19:33N 37°34' E 023°44'9 9.2
2014-Apr-22 18:33N 37°43' E 023°40'9 8.8
2014-Apr-22 17:33N 37°49' E 023°33'9 9.2
2014-Apr-22 16:33N 37°51' E 023°21'9 9.3
2014-Apr-22 15:33N 37°53' E 023°10'4 3.9
2014-Apr-22 14:33N 37°55' E 023°05'0 0.0
2014-Apr-22 01:33N 37°55' E 023°05'0 0.0
2014-Apr-21 06:32N 37°55' E 023°05'1 1.0
2014-Apr-21 05:14N 37°54' E 023°04'1 0.3
2014-Apr-21 02:12N 37°54' E 023°03'0 0.0
2014-Apr-20 20:09N 37°54' E 023°03'0 0.0
2014-Apr-20 17:33N 37°54' E 023°03'0 0.0
2014-Apr-20 16:21N 37°54' E 023°03'0 0.0
2014-Apr-20 14:15N 37°54' E 023°03'0 0.0
2014-Apr-20 13:33N 37°54' E 023°03'0 0.0
2014-Apr-20 12:30N 37°54' E 023°03'0 0.0
2014-Apr-20 11:33N 37°54' E 023°03'0 0.0
2014-Apr-20 10:27N 37°54' E 023°03'0 0.2
2014-Apr-20 09:30N 37°54' E 023°03'0 0.0
2014-Apr-19 23:18N 37°54' E 023°03'0 0.0
2014-Apr-19 22:12N 37°54' E 023°03'0 0.0
2014-Apr-19 21:30N 37°54' E 023°03'0 0.0
2014-Apr-19 09:12N 37°54' E 023°03'0 0.1
2014-Apr-19 08:33N 37°54' E 023°03'7 0.3
2014-Apr-18 08:19N 37°53' E 023°11'6 8.2
2014-Apr-18 07:33N 37°52' E 023°19'8 8.1
2014-Apr-18 06:33N 37°50' E 023°29'8 8.3
2014-Apr-18 05:33N 37°48' E 023°40'1111.1
2014-Apr-18 04:33N 37°39' E 023°47'1311.0
2014-Apr-18 03:25N 37°34' E 024°02'910.2
2014-Apr-18 02:30N 37°39' E 024°12'1111.4
2014-Apr-18 01:30N 37°47' E 024°22'1111.5
2014-Apr-18 00:31N 37°54' E 024°34'297 7.4
2014-Apr-16 08:21N 41°21' E 029°10'  

Dump ship's entire track history

sailing weather and tide predictions

Bermuda Spirit — C6XT2 — position and weather